Time;durP1;ratioP1;P1;durP2;ratioP2;P2;SDS_P1;SDS_P2;PMS_P1;PMS_P2;Temp;Humidity;BMP_temperature;BMP_pressure;BME280_temperature;BME280_humidity;BME280_pressure;Samples;Min_cycle;Max_cycle;Signal;HPM_P1;HPM_P2
2022/01/21 00:00:50;;;;;;;4.90;3.40;;;-8.40;99.90;;;;;;5098925;28;20407;-81
2022/01/21 00:03:16;;;;;;;11.20;3.20;;;-6.80;99.90;;;;;;5098736;28;20173;-77
2022/01/21 00:05:41;;;;;;;10.70;4.13;;;-6.20;99.90;;;;;;5096478;28;20443;-75
2022/01/21 00:08:07;;;;;;;8.63;2.53;;;-8.70;99.90;;;;;;5097302;28;20171;-75
2022/01/21 00:10:33;;;;;;;12.50;4.03;;;-8.90;99.90;;;;;;5097697;28;20212;-75
2022/01/21 00:12:59;;;;;;;7.60;2.40;;;-8.60;99.90;;;;;;5097563;28;20159;-76
2022/01/21 00:15:25;;;;;;;5.30;3.10;;;-8.20;99.90;;;;;;5097289;28;20162;-76
2022/01/21 00:17:51;;;;;;;8.23;3.20;;;-8.50;99.90;;;;;;5096324;28;20908;-74
2022/01/21 00:31:13;;;;;;;9.90;3.03;;;-7.90;99.90;;;;;;5097251;28;20398;-81
2022/01/21 00:33:39;;;;;;;8.43;2.83;;;-7.70;99.90;;;;;;5097183;28;20395;-76
2022/01/21 00:36:06;;;;;;;11.90;3.13;;;-7.70;99.90;;;;;;5097375;28;20163;-76
2022/01/21 00:38:32;;;;;;;13.47;2.50;;;-7.60;99.90;;;;;;5096471;28;20189;-78
2022/01/21 00:41:02;;;;;;;9.13;3.07;;;-7.40;99.90;;;;;;5097040;28;20411;-80
2022/01/21 00:43:32;;;;;;;10.63;3.60;;;-7.60;99.90;;;;;;5096799;28;20910;-82
2022/01/21 00:45:59;;;;;;;13.50;3.37;;;-7.60;99.90;;;;;;5096844;28;20799;-81
2022/01/21 00:48:26;;;;;;;15.10;3.00;;;-7.60;99.90;;;;;;5096874;28;20404;-77
2022/01/21 00:50:51;;;;;;;7.63;3.30;;;-7.50;99.90;;;;;;5096539;28;20484;-76
2022/01/21 00:53:17;;;;;;;14.20;2.97;;;-7.80;99.90;;;;;;5096643;28;20486;-75
2022/01/21 00:55:43;;;;;;;9.97;3.47;;;-8.00;99.90;;;;;;5096628;28;20502;-78
2022/01/21 00:58:09;;;;;;;7.40;2.23;;;-8.10;99.90;;;;;;5096855;28;20166;-75
2022/01/21 01:00:36;;;;;;;16.83;4.37;;;-6.80;99.90;;;;;;5095408;28;20179;-76
2022/01/21 01:03:03;;;;;;;10.57;2.57;;;-8.00;99.90;;;;;;5096658;28;20205;-75
2022/01/21 01:05:29;;;;;;;12.90;3.90;;;-8.10;99.90;;;;;;5094984;28;20806;-75
2022/01/21 01:07:55;;;;;;;5.20;2.37;;;-8.70;99.90;;;;;;5096360;28;20494;-74
2022/01/21 01:10:39;;;;;;;22.97;3.50;;;-8.70;99.90;;;;;;5096339;28;20159;-75
2022/01/21 01:21:23;;;;;;;12.03;3.57;;;-9.00;99.90;;;;;;5085520;28;20410;-74
2022/01/21 01:29:17;;;;;;;12.87;4.13;;;-8.40;99.90;;;;;;5096348;28;20398;-73
2022/01/21 01:31:43;;;;;;;8.23;3.07;;;-9.00;99.90;;;;;;5095200;28;20399;-76
2022/01/21 01:34:09;;;;;;;8.27;5.10;;;-9.70;99.90;;;;;;5095900;28;20421;-76
2022/01/21 01:36:35;;;;;;;15.67;4.43;;;-9.50;99.90;;;;;;5095887;28;20288;-76
2022/01/21 01:42:00;;;;;;;13.87;5.80;;;-9.90;99.90;;;;;;5095981;28;20749;-76
2022/01/21 01:49:45;;;;;;;14.13;5.10;;;-9.60;99.90;;;;;;5095784;28;20751;-75
2022/01/21 01:52:14;;;;;;;9.40;4.07;;;-9.60;99.90;;;;;;5095971;28;20400;-79
2022/01/21 01:54:43;;;;;;;9.70;4.07;;;-9.90;99.90;;;;;;5095721;28;20178;-77
2022/01/21 01:57:09;;;;;;;11.43;4.60;;;-10.30;99.90;;;;;;5095963;28;20544;-79
2022/01/21 01:59:35;;;;;;;13.43;4.47;;;-10.70;99.90;;;;;;5095788;28;20846;-76
2022/01/21 02:02:09;;;;;;;15.10;4.57;;;-9.80;99.90;;;;;;5095817;28;20396;-79
2022/01/21 02:04:35;;;;;;;8.13;4.37;;;-9.60;99.90;;;;;;5095468;28;20439;-77
2022/01/21 02:07:02;;;;;;;18.13;5.67;;;-9.70;99.90;;;;;;5095672;28;20819;-80
2022/01/21 02:09:28;;;;;;;33.30;7.07;;;-9.90;99.90;;;;;;5095747;28;20837;-78
2022/01/21 02:11:55;;;;;;;10.60;4.00;;;-9.40;99.90;;;;;;5095682;28;20395;-78
2022/01/21 02:14:26;;;;;;;13.00;5.10;;;-8.70;99.90;;;;;;5095862;28;20246;-79
2022/01/21 02:22:04;;;;;;;11.50;5.30;;;-8.50;99.90;;;;;;5095385;28;20423;-75
2022/01/21 02:24:45;;;;;;;10.93;5.00;;;-8.30;99.90;;;;;;5095610;28;20799;-75
2022/01/21 02:27:11;;;;;;;12.47;5.83;;;-7.90;99.90;;;;;;5095547;28;20236;-79
2022/01/21 02:29:45;;;;;;;14.10;4.93;;;-7.90;99.90;;;;;;5097352;28;20423;-81
2022/01/21 02:32:11;;;;;;;11.07;3.77;;;-8.20;99.90;;;;;;5098274;28;20215;-80
2022/01/21 02:34:38;;;;;;;18.90;4.53;;;-7.60;99.90;;;;;;5099283;28;20899;-81
2022/01/21 02:37:04;;;;;;;12.40;4.03;;;-8.00;99.90;;;;;;5099312;28;20682;-80
2022/01/21 02:39:30;;;;;;;8.90;3.50;;;-9.20;99.90;;;;;;5098121;28;20838;-77
2022/01/21 02:41:55;;;;;;;10.27;3.73;;;-9.90;99.90;;;;;;5099257;28;20750;-80
2022/01/21 02:44:22;;;;;;;11.20;3.20;;;-9.20;99.90;;;;;;5099191;28;20206;-80
2022/01/21 02:46:55;;;;;;;10.43;3.67;;;-9.10;99.90;;;;;;5098850;28;20162;-81
2022/01/21 02:49:20;;;;;;;11.20;3.30;;;-9.30;99.90;;;;;;5098156;28;20399;-83
2022/01/21 02:51:46;;;;;;;10.13;4.73;;;-9.50;99.90;;;;;;5099115;28;20441;-77
2022/01/21 02:54:12;;;;;;;16.33;4.23;;;-9.20;99.90;;;;;;5099173;28;20458;-81
2022/01/21 02:56:39;;;;;;;12.87;3.20;;;-8.60;99.90;;;;;;5098849;28;20242;-79
2022/01/21 02:59:07;;;;;;;9.60;2.60;;;-9.50;99.90;;;;;;5099062;28;20171;-82
2022/01/21 03:01:35;;;;;;;7.07;2.83;;;-9.20;99.90;;;;;;5098549;28;20848;-80
2022/01/21 03:04:03;;;;;;;14.87;4.40;;;-8.80;99.90;;;;;;5098705;28;20400;-82
2022/01/21 03:06:29;;;;;;;8.37;2.83;;;-9.30;99.90;;;;;;5097704;28;20419;-80
2022/01/21 03:08:57;;;;;;;11.27;3.07;;;-9.00;99.90;;;;;;5099190;28;20424;-82
2022/01/21 03:11:24;;;;;;;13.60;3.20;;;-8.50;99.90;;;;;;5098681;28;20392;-80
2022/01/21 03:13:50;;;;;;;7.83;2.60;;;-9.00;99.90;;;;;;5098814;28;20400;-78
2022/01/21 03:16:17;;;;;;;15.63;4.00;;;-8.70;99.90;;;;;;5098340;28;20395;-82
2022/01/21 03:18:42;;;;;;;9.87;3.03;;;-9.40;99.90;;;;;;5098656;28;20437;-74
2022/01/21 03:21:15;;;;;;;5.10;2.17;;;-7.50;99.90;;;;;;5098591;28;20403;-78
2022/01/21 03:23:43;;;;;;;7.33;2.97;;;-8.60;99.90;;;;;;5098552;28;20246;-82
2022/01/21 03:26:09;;;;;;;18.03;3.03;;;-8.40;99.90;;;;;;5098325;28;20450;-84
2022/01/21 03:28:35;;;;;;;10.33;2.20;;;-8.60;99.90;;;;;;5098466;28;20406;-82
2022/01/21 03:31:00;;;;;;;8.23;2.30;;;-8.40;99.90;;;;;;5098110;28;20169;-80
2022/01/21 03:33:26;;;;;;;8.50;2.33;;;-8.30;99.90;;;;;;5098259;28;20393;-83
2022/01/21 03:35:53;;;;;;;7.13;3.70;;;-8.40;99.90;;;;;;5098266;28;20252;-83
2022/01/21 03:38:24;;;;;;;9.97;3.23;;;-8.30;99.90;;;;;;5096841;28;20190;-83
2022/01/21 03:40:50;;;;;;;3.53;2.33;;;-8.00;99.90;;;;;;5096590;28;20780;-82
2022/01/21 03:43:16;;;;;;;7.93;2.37;;;-8.40;99.90;;;;;;5097966;28;20513;-82
2022/01/21 03:45:42;;;;;;;11.13;3.77;;;-7.90;99.90;;;;;;5097903;28;20530;-82
2022/01/21 03:48:07;;;;;;;16.00;2.67;;;-8.40;99.90;;;;;;5098026;28;20246;-77
2022/01/21 03:50:33;;;;;;;10.83;2.57;;;-8.10;99.90;;;;;;5098669;28;20167;-82
2022/01/21 03:53:00;;;;;;;10.23;1.90;;;-8.00;99.90;;;;;;5098321;28;20163;-83
2022/01/21 03:55:27;;;;;;;12.17;2.97;;;-8.10;99.90;;;;;;5097849;28;20254;-80
2022/01/21 03:57:52;;;;;;;6.60;2.47;;;-8.10;99.90;;;;;;5097842;28;20429;-78
2022/01/21 04:00:23;;;;;;;9.00;1.73;;;-8.00;99.90;;;;;;5097659;28;20399;-83
2022/01/21 04:02:50;;;;;;;9.37;1.53;;;-8.00;99.90;;;;;;5097710;28;20578;-82
2022/01/21 04:05:16;;;;;;;13.60;2.83;;;-8.30;99.90;;;;;;5096541;28;20447;-82
2022/01/21 04:07:41;;;;;;;6.47;2.20;;;-8.50;99.90;;;;;;5097619;28;20399;-82
2022/01/21 04:10:08;;;;;;;10.80;2.13;;;-8.10;99.90;;;;;;5097677;28;20159;-79
2022/01/21 04:12:33;;;;;;;10.67;2.67;;;-8.30;99.90;;;;;;5097706;28;20603;-75
2022/01/21 04:14:59;;;;;;;10.63;3.10;;;-8.00;99.90;;;;;;5097153;28;20403;-82
2022/01/21 04:17:26;;;;;;;9.60;2.87;;;-8.40;99.90;;;;;;5097528;28;20175;-78
2022/01/21 04:19:52;;;;;;;7.70;3.07;;;-8.20;99.90;;;;;;5097309;28;20197;-74
2022/01/21 04:22:18;;;;;;;11.03;2.60;;;-8.10;99.90;;;;;;5096613;28;20706;-78
2022/01/21 04:24:45;;;;;;;5.63;2.70;;;-8.00;99.90;;;;;;5097213;28;20443;-76
2022/01/21 04:27:12;;;;;;;7.20;2.40;;;-8.00;99.90;;;;;;5097357;28;20170;-79
2022/01/21 04:29:37;;;;;;;9.83;2.97;;;-8.20;99.90;;;;;;5096938;28;20395;-81
2022/01/21 04:32:04;;;;;;;11.07;3.23;;;-8.30;99.90;;;;;;5097230;28;20479;-78
2022/01/21 04:34:30;;;;;;;7.23;3.00;;;-8.40;99.90;;;;;;5096953;28;20166;-77
2022/01/21 04:36:55;;;;;;;8.30;3.53;;;-8.70;99.90;;;;;;5095914;28;20461;-78
2022/01/21 04:39:28;;;;;;;7.90;3.20;;;-8.80;99.90;;;;;;5096885;28;20189;-82
2022/01/21 04:49:42;;;;;;;9.67;3.43;;;-8.50;99.90;;;;;;5096959;28;20434;-81
2022/01/21 04:52:09;;;;;;;13.90;4.63;;;-8.50;99.90;;;;;;5096085;28;20403;-82
2022/01/21 04:54:36;;;;;;;13.90;5.03;;;-8.70;99.90;;;;;;5096722;28;20170;-79
2022/01/21 04:57:04;;;;;;;6.10;3.30;;;-8.40;99.90;;;;;;5096783;28;20406;-86
2022/01/21 04:59:30;;;;;;;16.77;4.00;;;-8.40;99.90;;;;;;5096284;28;20823;-85
2022/01/21 05:01:56;;;;;;;13.70;6.07;;;-8.50;99.90;;;;;;5096480;28;20744;-78
2022/01/21 05:04:22;;;;;;;12.97;4.17;;;-8.10;99.90;;;;;;5096646;28;20399;-79
2022/01/21 05:06:50;;;;;;;9.27;5.00;;;-8.10;99.90;;;;;;5096678;28;20166;-75
2022/01/21 05:09:17;;;;;;;10.13;3.63;;;-8.20;99.90;;;;;;5096169;28;20772;-80
2022/01/21 05:11:47;;;;;;;8.60;3.73;;;-8.20;99.90;;;;;;5095263;28;20733;-75
2022/01/21 05:14:21;;;;;;;12.00;5.17;;;-8.40;99.90;;;;;;5096210;28;20488;-79
2022/01/21 05:16:49;;;;;;;11.57;4.20;;;-9.30;99.90;;;;;;5095373;28;20447;-76
2022/01/21 05:19:17;;;;;;;12.27;3.90;;;-9.20;99.90;;;;;;5096162;28;20395;-82
2022/01/21 05:21:48;;;;;;;27.40;6.63;;;-8.50;99.90;;;;;;5096316;28;20446;-76
2022/01/21 05:24:14;;;;;;;18.40;7.03;;;-8.70;99.90;;;;;;5094886;28;20842;-78
2022/01/21 05:26:42;;;;;;;9.33;4.00;;;-8.70;99.90;;;;;;5094913;28;20411;-75
2022/01/21 05:29:11;;;;;;;10.67;4.93;;;-9.40;99.90;;;;;;5096083;28;20403;-75
2022/01/21 05:31:37;;;;;;;12.00;5.93;;;-8.70;99.90;;;;;;5096199;28;20395;-77
2022/01/21 05:34:03;;;;;;;7.83;5.23;;;-8.50;99.90;;;;;;5095055;28;20843;-74
2022/01/21 05:36:31;;;;;;;7.47;4.80;;;-7.50;99.90;;;;;;5096008;28;20403;-80
2022/01/21 05:38:58;;;;;;;9.83;4.37;;;-8.30;99.90;;;;;;5094864;28;20443;-77
2022/01/21 05:41:25;;;;;;;9.07;4.43;;;-8.10;99.90;;;;;;5095553;28;20403;-80
2022/01/21 05:44:00;;;;;;;13.00;4.33;;;-8.40;99.90;;;;;;5096073;28;20414;-77
2022/01/21 05:46:40;;;;;;;12.33;4.50;;;-6.80;99.90;;;;;;5094747;28;20901;-82
2022/01/21 05:49:06;;;;;;;9.20;4.50;;;-8.10;99.90;;;;;;5095990;28;20403;-76
2022/01/21 05:51:32;;;;;;;5.77;3.83;;;-7.60;99.90;;;;;;5094731;28;20438;-79
2022/01/21 05:53:58;;;;;;;6.63;3.80;;;-7.60;99.90;;;;;;5096069;28;20583;-77
2022/01/21 05:56:25;;;;;;;10.43;4.97;;;-7.30;99.90;;;;;;5094406;28;20174;-85
2022/01/21 05:58:51;;;;;;;9.07;4.80;;;-7.30;99.90;;;;;;5094939;28;20594;-84
2022/01/21 06:01:17;;;;;;;14.23;4.90;;;-7.10;99.90;;;;;;5095609;28;20403;-80
2022/01/21 06:03:43;;;;;;;13.50;4.87;;;-7.60;99.90;;;;;;5097980;28;20403;-83
2022/01/21 06:06:09;;;;;;;14.73;6.53;;;-8.00;99.90;;;;;;5099877;28;20244;-78
2022/01/21 06:08:37;;;;;;;9.80;4.07;;;-8.00;99.90;;;;;;5099962;28;20544;-79
2022/01/21 06:11:04;;;;;;;11.83;5.10;;;-8.00;99.90;;;;;;5099490;28;20411;-78
2022/01/21 06:13:30;;;;;;;12.67;5.00;;;-8.10;99.90;;;;;;5099935;28;20742;-80
2022/01/21 06:15:58;;;;;;;11.47;5.47;;;-8.20;99.90;;;;;;5099758;28;20428;-80
2022/01/21 06:18:24;;;;;;;14.10;5.07;;;-8.70;99.90;;;;;;5098670;28;20415;-80
2022/01/21 06:20:49;;;;;;;10.17;4.43;;;-9.30;99.90;;;;;;5099615;28;20705;-81
2022/01/21 06:23:15;;;;;;;11.20;5.20;;;-9.90;99.90;;;;;;5099618;28;20517;-80
2022/01/21 06:25:41;;;;;;;9.67;5.60;;;-10.10;99.90;;;;;;5099289;28;20205;-83
2022/01/21 06:28:07;;;;;;;10.80;5.23;;;-9.50;99.90;;;;;;5099520;28;20166;-75
2022/01/21 06:30:33;;;;;;;12.40;6.03;;;-9.70;99.90;;;;;;5099442;28;20680;-82
2022/01/21 06:32:59;;;;;;;12.80;5.60;;;-8.80;99.90;;;;;;5099429;28;20228;-76
2022/01/21 06:35:25;;;;;;;11.27;5.57;;;-9.40;99.90;;;;;;5099197;28;20181;-77
2022/01/21 06:37:50;;;;;;;11.20;4.80;;;-9.80;99.90;;;;;;5098128;28;20189;-80
2022/01/21 06:40:20;;;;;;;8.83;5.17;;;-9.40;99.90;;;;;;5099090;28;20287;-83
2022/01/21 06:42:50;;;;;;;9.10;5.93;;;-8.90;99.90;;;;;;5099140;28;20469;-75
2022/01/21 06:45:17;;;;;;;17.83;5.63;;;-9.60;99.90;;;;;;5098971;28;20458;-76
2022/01/21 06:47:43;;;;;;;9.53;5.20;;;-9.90;99.90;;;;;;5099107;28;20868;-84
2022/01/21 06:50:09;;;;;;;11.27;5.37;;;-8.60;99.90;;;;;;5099089;28;20392;-75
2022/01/21 06:52:35;;;;;;;9.53;4.93;;;-9.80;99.90;;;;;;5098914;28;20174;-81
2022/01/21 06:55:01;;;;;;;11.77;4.73;;;-11.30;99.90;;;;;;5098769;28;20409;-84
2022/01/21 06:57:28;;;;;;;19.00;5.13;;;-10.40;99.90;;;;;;5098960;28;20520;-82
2022/01/21 06:59:53;;;;;;;9.63;4.83;;;-10.60;99.90;;;;;;5097913;28;20407;-76
2022/01/21 07:02:19;;;;;;;14.63;5.43;;;-10.20;99.90;;;;;;5098822;28;20667;-75
2022/01/21 07:04:49;;;;;;;15.63;5.90;;;-10.50;99.90;;;;;;5098708;28;20598;-84
2022/01/21 07:07:16;;;;;;;9.70;5.50;;;-10.70;99.90;;;;;;5098762;28;20558;-80
2022/01/21 07:09:43;;;;;;;9.93;5.60;;;-10.30;99.90;;;;;;5097675;28;20403;-81
2022/01/21 07:12:09;;;;;;;17.50;6.87;;;-10.20;99.90;;;;;;5098732;28;20407;-79
2022/01/21 07:14:35;;;;;;;13.30;5.23;;;-10.00;99.90;;;;;;5097698;28;20464;-81
2022/01/21 07:17:01;;;;;;;18.03;6.23;;;-9.60;99.90;;;;;;5098659;28;20827;-80
2022/01/21 07:19:27;;;;;;;19.93;7.80;;;-6.70;99.90;;;;;;5092345;28;20179;-80
2022/01/21 07:21:53;;;;;;;11.47;5.67;;;-9.50;99.90;;;;;;5088384;28;20411;-85
2022/01/21 07:24:19;;;;;;;13.83;5.50;;;-9.70;99.90;;;;;;5093697;28;20178;-82
2022/01/21 07:26:44;;;;;;;9.27;5.77;;;-9.60;99.90;;;;;;5098178;28;20197;-80
2022/01/21 07:29:10;;;;;;;10.47;5.07;;;-9.30;99.90;;;;;;5098330;28;20439;-82
2022/01/21 07:31:36;;;;;;;12.57;5.20;;;-8.90;99.90;;;;;;5092342;28;20175;-81
2022/01/21 07:34:06;;;;;;;13.97;5.13;;;-9.20;99.90;;;;;;5077630;28;20183;-86
2022/01/21 07:36:33;;;;;;;21.13;7.27;;;-7.60;99.90;;;;;;5077202;28;20237;-78
2022/01/21 07:39:00;;;;;;;12.67;6.20;;;-8.90;99.90;;;;;;5077926;28;20439;-80
2022/01/21 07:41:25;;;;;;;10.27;5.53;;;-8.70;99.90;;;;;;5070639;28;20420;-80
2022/01/21 07:43:52;;;;;;;11.63;4.63;;;-6.80;99.90;;;;;;5091013;28;20858;-75
2022/01/21 07:46:19;;;;;;;10.03;5.10;;;-8.60;99.90;;;;;;5076614;28;20191;-83
2022/01/21 07:48:45;;;;;;;9.93;4.63;;;-8.50;99.90;;;;;;5075983;28;20396;-80
2022/01/21 07:51:11;;;;;;;13.20;6.43;;;-8.60;99.90;;;;;;5075347;28;20415;-77
2022/01/21 07:53:37;;;;;;;12.60;5.33;;;-8.10;99.90;;;;;;5076354;28;20396;-81
2022/01/21 07:56:04;;;;;;;6.17;5.10;;;-8.20;99.90;;;;;;5075558;28;20202;-78
2022/01/21 07:58:30;;;;;;;18.70;9.03;;;-8.00;99.90;;;;;;5075531;28;20523;-77
2022/01/21 08:00:56;;;;;;;13.00;5.57;;;-7.90;99.90;;;;;;5075618;28;20707;-83
2022/01/21 08:03:23;;;;;;;10.57;5.47;;;-8.30;99.90;;;;;;5074335;28;20450;-80
2022/01/21 08:05:51;;;;;;;26.00;8.07;;;-8.30;99.90;;;;;;5075897;28;20463;-84
2022/01/21 08:08:17;;;;;;;18.03;6.70;;;-9.10;99.90;;;;;;5076237;28;20415;-86
2022/01/21 08:10:43;;;;;;;11.83;6.57;;;-6.20;99.90;;;;;;5074739;28;20470;-83
2022/01/21 08:13:08;;;;;;;13.07;5.60;;;-9.40;99.90;;;;;;5076591;28;20400;-80
2022/01/21 08:15:34;;;;;;;13.17;6.80;;;-7.40;99.90;;;;;;5075906;28;20168;-81
2022/01/21 08:18:01;;;;;;;15.97;5.70;;;-9.00;99.90;;;;;;5074656;28;20542;-79
2022/01/21 08:20:28;;;;;;;20.47;6.10;;;-7.10;99.90;;;;;;5074503;28;20179;-78
2022/01/21 08:22:54;;;;;;;17.13;7.23;;;-9.50;99.90;;;;;;5082688;28;20422;-78
2022/01/21 08:25:20;;;;;;;10.33;6.07;;;-6.70;99.90;;;;;;5096376;28;20455;-76
2022/01/21 08:27:46;;;;;;;14.87;6.40;;;-10.60;99.90;;;;;;5094895;28;20171;-79
2022/01/21 08:30:12;;;;;;;9.77;5.07;;;-7.00;99.90;;;;;;5094294;28;20955;-77
2022/01/21 08:32:38;;;;;;;14.67;7.57;;;-9.20;99.90;;;;;;5084572;28;20717;-81
2022/01/21 08:35:08;;;;;;;7.83;5.60;;;-7.50;99.90;;;;;;5088074;28;20419;-77
2022/01/21 08:37:36;;;;;;;8.57;5.53;;;-9.10;99.90;;;;;;5086351;28;20264;-77
2022/01/21 08:40:05;;;;;;;13.00;6.90;;;-8.60;99.90;;;;;;5086064;28;20436;-76
2022/01/21 08:42:33;;;;;;;14.97;5.63;;;-9.30;99.90;;;;;;5093310;28;20434;-77
2022/01/21 08:44:59;;;;;;;12.93;5.97;;;-8.80;99.90;;;;;;5087852;28;20464;-81
2022/01/21 08:47:26;;;;;;;14.90;5.80;;;-9.20;99.90;;;;;;5073930;28;20416;-80
2022/01/21 08:49:53;;;;;;;14.67;5.93;;;-8.90;99.90;;;;;;5075417;28;20400;-80
2022/01/21 08:52:21;;;;;;;11.70;6.60;;;-9.00;99.90;;;;;;5080226;28;20451;-81
2022/01/21 08:54:50;;;;;;;13.73;4.87;;;-6.70;99.90;;;;;;5091378;28;20419;-81
2022/01/21 08:57:16;;;;;;;10.07;5.03;;;-9.00;99.90;;;;;;5077228;28;20515;-80
2022/01/21 08:59:43;;;;;;;7.43;5.33;;;-9.10;99.90;;;;;;5083905;28;20424;-77
2022/01/21 09:02:09;;;;;;;9.13;4.47;;;-8.70;99.90;;;;;;5085077;28;20420;-78
2022/01/21 09:04:36;;;;;;;12.53;5.43;;;-8.70;99.90;;;;;;5088122;28;20415;-77
2022/01/21 09:07:02;;;;;;;5.80;4.17;;;-9.20;99.90;;;;;;5090681;28;20469;-77
2022/01/21 09:09:28;;;;;;;10.57;4.80;;;-9.60;99.90;;;;;;5083645;28;20516;-75
2022/01/21 09:11:59;;;;;;;16.67;5.00;;;-11.20;99.90;;;;;;5075134;28;20518;-76
2022/01/21 09:14:30;;;;;;;8.20;5.00;;;-9.00;99.90;;;;;;5074934;28;20722;-79
2022/01/21 09:16:59;;;;;;;10.10;5.67;;;-8.80;99.90;;;;;;5092060;28;20822;-76
2022/01/21 09:19:28;;;;;;;9.20;4.27;;;-9.00;99.90;;;;;;5094265;28;20702;-82
2022/01/21 09:21:55;;;;;;;12.43;5.23;;;-9.70;99.90;;;;;;5094955;28;20502;-83
2022/01/21 09:24:22;;;;;;;12.87;4.97;;;-9.80;99.90;;;;;;5088671;28;20412;-83
2022/01/21 09:26:48;;;;;;;6.23;5.00;;;-9.50;99.90;;;;;;5072127;28;20415;-85
2022/01/21 09:29:15;;;;;;;14.20;6.33;;;-9.30;99.90;;;;;;5078662;28;20484;-80
2022/01/21 09:31:41;;;;;;;7.07;4.13;;;-8.90;99.90;;;;;;5082727;28;20466;-76
2022/01/21 09:34:07;;;;;;;11.27;4.80;;;-8.80;99.90;;;;;;5079321;28;20506;-78
2022/01/21 09:36:34;;;;;;;10.87;5.47;;;-9.20;99.90;;;;;;5090999;28;20179;-80
2022/01/21 09:39:00;;;;;;;8.93;4.80;;;-9.10;99.90;;;;;;5089718;28;20202;-78
2022/01/21 09:41:28;;;;;;;11.63;4.47;;;-6.50;99.90;;;;;;5074140;28;20490;-79
2022/01/21 09:43:55;;;;;;;12.87;5.50;;;-8.40;99.90;;;;;;5073600;28;20980;-78
2022/01/21 09:46:32;;;;;;;6.20;5.00;;;-7.30;99.90;;;;;;5073826;28;20454;-79
2022/01/21 09:49:07;;;;;;;9.23;5.30;;;-5.80;99.90;;;;;;5079070;28;20431;-82
2022/01/21 09:51:37;;;;;;;11.03;4.80;;;-6.50;99.90;;;;;;5092057;28;20498;-75
2022/01/21 09:54:06;;;;;;;11.33;4.27;;;-9.20;99.90;;;;;;5090035;28;20908;-75
2022/01/21 09:56:34;;;;;;;14.60;4.57;;;-7.40;99.90;;;;;;5074856;28;20460;-80
2022/01/21 09:59:00;;;;;;;8.50;4.23;;;-9.90;99.90;;;;;;5075308;28;20443;-82
2022/01/21 10:01:27;;;;;;;9.23;5.50;;;-10.00;99.90;;;;;;5090804;28;20878;-76
2022/01/21 10:03:53;;;;;;;12.47;4.20;;;-9.90;99.90;;;;;;5087474;28;20427;-78
2022/01/21 10:06:25;;;;;;;10.20;4.73;;;-9.20;99.90;;;;;;5083406;28;20458;-77
2022/01/21 10:08:53;;;;;;;10.30;4.17;;;-9.70;99.90;;;;;;5087040;28;20462;-79
2022/01/21 10:11:20;;;;;;;8.07;4.47;;;-7.20;99.90;;;;;;5080296;28;20435;-80
2022/01/21 10:13:48;;;;;;;9.80;3.37;;;-6.70;99.90;;;;;;5073935;28;20466;-81
2022/01/21 10:16:14;;;;;;;9.27;4.07;;;-9.20;99.90;;;;;;5077989;28;20420;-82
2022/01/21 10:19:03;;;;;;;17.93;5.73;;;-10.10;99.90;;;;;;5072065;28;20418;-78
2022/01/21 10:21:34;;;;;;;12.83;5.60;;;-8.80;99.90;;;;;;5073604;28;20511;-79
2022/01/21 10:24:14;;;;;;;9.20;3.90;;;-7.10;99.90;;;;;;5075698;28;20461;-80
2022/01/21 10:26:51;;;;;;;8.37;4.07;;;-8.70;99.90;;;;;;5073200;28;20547;-77
2022/01/21 10:29:18;;;;;;;7.30;3.53;;;-7.50;99.90;;;;;;5077372;28;20419;-78
2022/01/21 10:32:01;;;;;;;7.57;4.53;;;-6.20;99.90;;;;;;5089845;28;20417;-77
2022/01/21 10:34:34;;;;;;;7.53;3.90;;;-8.10;99.90;;;;;;5085230;28;20416;-76
2022/01/21 10:37:10;;;;;;;10.90;4.80;;;-8.30;99.90;;;;;;5091373;28;20452;-79
2022/01/21 10:39:58;;;;;;;10.40;3.30;;;-8.10;99.90;;;;;;5079751;28;20459;-77
2022/01/21 10:42:26;;;;;;;13.03;4.70;;;-8.10;99.90;;;;;;5087642;28;20433;-78
2022/01/21 10:44:52;;;;;;;10.00;4.53;;;-5.70;99.90;;;;;;5080091;28;20483;-79
2022/01/21 10:47:24;;;;;;;10.37;4.10;;;-7.90;99.90;;;;;;5076452;28;20517;-78
2022/01/21 10:50:12;;;;;;;4.57;3.20;;;-8.50;99.90;;;;;;5092598;28;20701;-77
2022/01/21 10:52:51;;;;;;;14.77;4.73;;;-7.70;99.90;;;;;;5081266;28;20419;-81
2022/01/21 10:55:35;;;;;;;10.97;4.63;;;-7.20;99.90;;;;;;5097213;28;20531;-79
2022/01/21 10:58:14;;;;;;;14.83;4.40;;;-7.70;99.90;;;;;;5076821;28;20429;-80
2022/01/21 11:01:01;;;;;;;11.13;4.10;;;-5.40;99.90;;;;;;5085335;28;20424;-84
2022/01/21 11:03:29;;;;;;;9.00;3.10;;;-8.00;99.90;;;;;;5078249;28;20525;-78
2022/01/21 11:06:17;;;;;;;9.27;4.73;;;-7.90;99.90;;;;;;5094510;28;20458;-81
2022/01/21 11:08:43;;;;;;;5.10;3.50;;;-7.50;99.90;;;;;;5089053;28;20704;-78
2022/01/21 11:11:09;;;;;;;7.77;3.50;;;-5.10;99.90;;;;;;5085704;28;20862;-85
2022/01/21 11:13:40;;;;;;;9.47;3.57;;;-5.30;99.90;;;;;;5095799;28;20175;-80
2022/01/21 11:16:10;;;;;;;13.10;4.07;;;-7.80;99.90;;;;;;5093899;28;20418;-79
2022/01/21 11:19:06;;;;;;;7.63;3.60;;;-7.60;99.90;;;;;;5091399;28;20452;-81
2022/01/21 11:21:48;;;;;;;18.40;4.60;;;-7.40;99.90;;;;;;5078174;28;20419;-78
2022/01/21 11:24:16;;;;;;;8.43;3.63;;;-8.00;99.90;;;;;;5076720;28;20427;-78
2022/01/21 11:26:43;;;;;;;17.33;3.97;;;-7.60;99.90;;;;;;5076624;28;20451;-77
2022/01/21 11:29:10;;;;;;;9.27;4.83;;;-7.10;99.90;;;;;;5090025;28;20419;-77
2022/01/21 11:31:36;;;;;;;8.80;5.57;;;-7.40;99.90;;;;;;5112254;28;20725;-77
2022/01/21 11:34:02;;;;;;;7.70;3.77;;;-5.90;99.90;;;;;;5090143;28;20426;-80
2022/01/21 11:36:28;;;;;;;7.40;3.73;;;-5.10;99.90;;;;;;5076783;28;20420;-77
2022/01/21 11:38:55;;;;;;;12.37;3.53;;;-8.30;99.90;;;;;;5076346;28;20202;-80
2022/01/21 11:41:26;;;;;;;15.47;4.70;;;-8.30;99.90;;;;;;5079840;28;20200;-78
2022/01/21 11:44:00;;;;;;;11.00;4.80;;;-8.00;99.90;;;;;;5089223;28;20443;-87
2022/01/21 11:46:59;;;;;;;12.60;4.93;;;-6.40;99.90;;;;;;5087992;28;20221;-75
2022/01/21 11:49:19;;;;;;;12.03;5.63;;;-7.70;99.90;;;;;;5090057;28;20773;-75
2022/01/21 11:51:45;;;;;;;7.43;3.77;;;-7.00;99.90;;;;;;5073262;28;20171;-75
2022/01/21 11:54:14;;;;;;;11.07;3.50;;;-7.20;99.90;;;;;;5084510;28;20414;-80
2022/01/21 11:57:02;;;;;;;12.13;3.50;;;-6.70;99.90;;;;;;5089591;28;20446;-81
2022/01/21 11:59:40;;;;;;;14.37;3.50;;;-7.00;99.90;;;;;;5088894;28;20518;-82
2022/01/21 12:02:15;;;;;;;9.83;4.23;;;-6.70;99.90;;;;;;5079964;28;20408;-81
2022/01/21 12:04:47;;;;;;;19.47;5.40;;;-6.40;99.90;;;;;;5085992;28;20798;-85
2022/01/21 12:07:40;;;;;;;14.37;5.17;;;-4.80;99.90;;;;;;5077135;28;20187;-84
2022/01/21 12:10:21;;;;;;;6.40;3.10;;;-7.80;99.90;;;;;;5081697;28;20415;-83
2022/01/21 12:18:43;;;;;;;18.70;5.50;;;-7.00;99.90;;;;;;5078397;28;20183;-78
2022/01/21 12:21:29;;;;;;;10.20;3.70;;;-7.30;99.90;;;;;;5065976;28;20198;-82
2022/01/21 12:23:58;;;;;;;10.70;3.97;;;-7.10;99.90;;;;;;5074253;28;20175;-84
2022/01/21 12:26:29;;;;;;;5.83;3.40;;;-7.90;99.90;;;;;;5086031;28;20621;-83
2022/01/21 12:28:57;;;;;;;16.47;4.50;;;-7.60;99.90;;;;;;5081673;28;20256;-86
2022/01/21 12:31:51;;;;;;;8.53;3.57;;;-8.60;99.90;;;;;;5089758;28;20297;-78
2022/01/21 12:34:17;;;;;;;11.70;4.07;;;-8.10;99.90;;;;;;5086718;28;20495;-78
2022/01/21 12:37:14;;;;;;;16.97;4.30;;;-8.10;99.90;;;;;;5083712;28;20408;-79
2022/01/21 12:39:42;;;;;;;9.47;3.87;;;-8.00;99.90;;;;;;5080056;28;20256;-81
2022/01/21 12:42:28;;;;;;;8.87;4.30;;;-6.30;99.90;;;;;;5074464;28;20411;-79
2022/01/21 12:45:09;;;;;;;12.17;4.07;;;-9.10;99.90;;;;;;5089402;28;20454;-78
2022/01/21 12:47:39;;;;;;;11.70;4.60;;;-7.60;99.90;;;;;;5078690;28;20747;-77
2022/01/21 12:50:07;;;;;;;13.60;4.67;;;-5.00;99.90;;;;;;5075321;28;20201;-78
2022/01/21 12:52:52;;;;;;;11.40;4.60;;;-6.90;99.90;;;;;;5081044;28;20765;-79
2022/01/21 12:58:09;;;;;;;8.33;4.67;;;-7.20;99.90;;;;;;5086690;28;20406;-78
2022/01/21 13:00:37;;;;;;;16.97;4.73;;;-4.80;99.90;;;;;;5083312;28;20426;-77
2022/01/21 13:03:13;;;;;;;5.57;4.40;;;-7.20;99.90;;;;;;5085305;28;20889;-76
2022/01/21 13:05:44;;;;;;;6.87;4.60;;;-6.90;99.90;;;;;;5079928;28;20457;-78
2022/01/21 13:08:34;;;;;;;8.83;5.27;;;-6.90;99.90;;;;;;5073052;28;20183;-77
2022/01/21 13:11:16;;;;;;;11.70;6.63;;;-6.80;99.90;;;;;;5088091;28;20235;-77
2022/01/21 13:13:58;;;;;;;9.20;6.07;;;-7.30;99.90;;;;;;5076230;28;20725;-77
2022/01/21 13:16:32;;;;;;;7.93;5.43;;;-7.20;99.90;;;;;;5075700;28;20223;-77
2022/01/21 13:19:00;;;;;;;6.57;5.47;;;-6.50;99.90;;;;;;5074371;28;20445;-81
2022/01/21 13:21:27;;;;;;;10.27;5.40;;;-6.00;99.90;;;;;;5086185;28;20510;-79
2022/01/21 13:23:57;;;;;;;13.63;5.73;;;-4.80;99.90;;;;;;5090376;28;20417;-79
2022/01/21 13:26:36;;;;;;;7.53;4.53;;;-6.70;99.90;;;;;;5087697;28;20206;-76
2022/01/21 13:29:04;;;;;;;11.17;5.37;;;-5.50;99.90;;;;;;5075541;28;20659;-77
2022/01/21 13:31:51;;;;;;;10.40;4.90;;;-7.20;99.90;;;;;;5086456;28;20213;-83
2022/01/21 13:34:26;;;;;;;11.63;4.40;;;-7.20;99.90;;;;;;5078639;28;20170;-86
2022/01/21 13:36:55;;;;;;;8.13;4.83;;;-7.40;99.90;;;;;;5083733;28;20461;-85
2022/01/21 13:39:25;;;;;;;9.57;6.27;;;-4.90;99.90;;;;;;5073254;28;20203;-80
2022/01/21 13:42:12;;;;;;;10.33;5.03;;;-7.20;99.90;;;;;;5084965;28;20178;-85
2022/01/21 13:44:47;;;;;;;8.47;5.27;;;-7.50;99.90;;;;;;5091380;28;20189;-84